Terminal Aerodrome Forecast
Issued by NWS

Home | Current Version | Previous Version | Text Only | Print | Product List | Glossary On
Versions: 1 2 3 4 5 6 7 8 9 10 11 12 13 14 15 16
000
FTUS45 KBOU 051140
TAFAPA
TAF
KAPA 051140Z 0512/0612 20007KT P6SM SCT220
     FM051500 VRB05KT P6SM BKN220
     FM051900 10007KT P6SM FEW110 SCT220
     FM052300 14010KT P6SM SCT090 SCT220
     FM060500 17015KT P6SM FEW100 BKN220
     FM060800 21007KT P6SM SCT100 BKN200=

USA.gov is the U.S. government's official web portal to all federal, state and local government web resources and services.